Terminal Aerodrome Forecast
Issued by NWS

Home | Current Version | Previous Version | Text Only | Print | Product List | Glossary On
Versions: 1 2 3 4 5 6 7 8 9 10 11 12 13 14 15 16 17 18 19 20 21 22 23 24 25 26
000
FTUS41 KGYX 180523
TAFPSM
TAF
KPSM 180523Z 1806/1906 15005KT 3/4SM -SN BR SCT003 OVC012
      TEMPO 1806/1810 1/2SM SN OVC003
     FM181200 31010G17KT P6SM SCT050=

USA.gov is the U.S. government's official web portal to all federal, state and local government web resources and services.